sensor_id;sensor_type;location;lat;lon;timestamp;temperature;humidity
36498;DHT22;22513;51.222;6.480;2022-11-11T00:00:11;6.50;99.90
36498;DHT22;22513;51.222;6.480;2022-11-11T00:02:37;6.50;99.90
36498;DHT22;22513;51.222;6.480;2022-11-11T00:05:03;6.50;99.90
36498;DHT22;22513;51.222;6.480;2022-11-11T00:07:28;6.50;99.90
36498;DHT22;22513;51.222;6.480;2022-11-11T00:09:54;6.50;99.90
36498;DHT22;22513;51.222;6.480;2022-11-11T00:12:19;6.50;99.90
36498;DHT22;22513;51.222;6.480;2022-11-11T00:14:45;6.40;99.90
36498;DHT22;22513;51.222;6.480;2022-11-11T00:17:13;6.40;99.90
36498;DHT22;22513;51.222;6.480;2022-11-11T00:19:57;6.30;99.90
36498;DHT22;22513;51.222;6.480;2022-11-11T00:22:41;6.30;99.90
36498;DHT22;22513;51.222;6.480;2022-11-11T00:25:26;6.30;99.90
36498;DHT22;22513;51.222;6.480;2022-11-11T00:27:51;6.30;99.90
36498;DHT22;22513;51.222;6.480;2022-11-11T00:30:17;6.20;99.90
36498;DHT22;22513;51.222;6.480;2022-11-11T00:32:42;6.20;99.90
36498;DHT22;22513;51.222;6.480;2022-11-11T00:35:09;6.10;99.90
36498;DHT22;22513;51.222;6.480;2022-11-11T00:37:53;6.00;99.90
36498;DHT22;22513;51.222;6.480;2022-11-11T00:40:19;6.00;99.90
36498;DHT22;22513;51.222;6.480;2022-11-11T00:42:44;6.00;99.90
36498;DHT22;22513;51.222;6.480;2022-11-11T00:45:10;6.00;99.90
36498;DHT22;22513;51.222;6.480;2022-11-11T00:47:36;6.00;99.90
36498;DHT22;22513;51.222;6.480;2022-11-11T00:50:26;6.00;99.90
36498;DHT22;22513;51.222;6.480;2022-11-11T00:53:16;6.00;99.90
36498;DHT22;22513;51.222;6.480;2022-11-11T00:55:43;5.90;99.90
36498;DHT22;22513;51.222;6.480;2022-11-11T00:58:08;5.90;99.90
36498;DHT22;22513;51.222;6.480;2022-11-11T01:00:34;5.90;99.90
36498;DHT22;22513;51.222;6.480;2022-11-11T01:03:00;5.90;99.90
36498;DHT22;22513;51.222;6.480;2022-11-11T01:05:26;5.90;99.90
36498;DHT22;22513;51.222;6.480;2022-11-11T01:07:52;5.80;99.90
36498;DHT22;22513;51.222;6.480;2022-11-11T01:10:18;5.90;99.90
36498;DHT22;22513;51.222;6.480;2022-11-11T01:13:12;5.80;99.90
36498;DHT22;22513;51.222;6.480;2022-11-11T01:15:39;5.80;99.90
36498;DHT22;22513;51.222;6.480;2022-11-11T01:18:05;5.80;99.90
36498;DHT22;22513;51.222;6.480;2022-11-11T01:20:31;5.80;99.90
36498;DHT22;22513;51.222;6.480;2022-11-11T01:22:57;5.70;99.90
36498;DHT22;22513;51.222;6.480;2022-11-11T01:25:23;5.70;99.90
36498;DHT22;22513;51.222;6.480;2022-11-11T01:27:48;5.70;99.90
36498;DHT22;22513;51.222;6.480;2022-11-11T01:30:15;5.70;99.90
36498;DHT22;22513;51.222;6.480;2022-11-11T01:32:40;5.70;99.90
36498;DHT22;22513;51.222;6.480;2022-11-11T01:35:06;5.70;99.90
36498;DHT22;22513;51.222;6.480;2022-11-11T01:37:35;5.70;99.90
36498;DHT22;22513;51.222;6.480;2022-11-11T01:40:01;5.70;99.90
36498;DHT22;22513;51.222;6.480;2022-11-11T01:42:27;5.70;99.90
36498;DHT22;22513;51.222;6.480;2022-11-11T01:44:52;5.70;99.90
36498;DHT22;22513;51.222;6.480;2022-11-11T01:47:18;5.70;99.90
36498;DHT22;22513;51.222;6.480;2022-11-11T01:49:57;5.70;99.90
36498;DHT22;22513;51.222;6.480;2022-11-11T01:52:37;5.70;99.90
36498;DHT22;22513;51.222;6.480;2022-11-11T01:55:06;5.70;99.90
36498;DHT22;22513;51.222;6.480;2022-11-11T01:57:49;5.70;99.90
36498;DHT22;22513;51.222;6.480;2022-11-11T02:00:18;5.70;99.90
36498;DHT22;22513;51.222;6.480;2022-11-11T02:02:48;5.70;99.90
36498;DHT22;22513;51.222;6.480;2022-11-11T02:05:16;5.70;99.90
36498;DHT22;22513;51.222;6.480;2022-11-11T02:08:06;5.60;99.90
36498;DHT22;22513;51.222;6.480;2022-11-11T02:10:33;5.60;99.90
36498;DHT22;22513;51.222;6.480;2022-11-11T02:12:58;5.60;99.90
36498;DHT22;22513;51.222;6.480;2022-11-11T02:15:43;5.60;99.90
36498;DHT22;22513;51.222;6.480;2022-11-11T02:18:10;5.50;99.90
36498;DHT22;22513;51.222;6.480;2022-11-11T02:20:44;5.60;99.90
36498;DHT22;22513;51.222;6.480;2022-11-11T02:23:17;5.60;99.90
36498;DHT22;22513;51.222;6.480;2022-11-11T02:25:45;5.60;99.90
36498;DHT22;22513;51.222;6.480;2022-11-11T02:28:12;5.60;99.90
36498;DHT22;22513;51.222;6.480;2022-11-11T02:30:39;5.60;99.90
36498;DHT22;22513;51.222;6.480;2022-11-11T02:33:04;5.60;99.90
36498;DHT22;22513;51.222;6.480;2022-11-11T02:37:57;5.60;99.90
36498;DHT22;22513;51.222;6.480;2022-11-11T02:40:31;5.60;99.90
36498;DHT22;22513;51.222;6.480;2022-11-11T02:42:58;5.60;99.90
36498;DHT22;22513;51.222;6.480;2022-11-11T02:45:23;5.50;99.90
36498;DHT22;22513;51.222;6.480;2022-11-11T02:47:49;5.50;99.90
36498;DHT22;22513;51.222;6.480;2022-11-11T02:50:14;5.50;99.90
36498;DHT22;22513;51.222;6.480;2022-11-11T02:52:40;5.40;99.90
36498;DHT22;22513;51.222;6.480;2022-11-11T02:55:06;5.40;99.90
36498;DHT22;22513;51.222;6.480;2022-11-11T02:57:32;5.40;99.90
36498;DHT22;22513;51.222;6.480;2022-11-11T02:59:59;5.40;99.90
36498;DHT22;22513;51.222;6.480;2022-11-11T03:02:26;5.40;99.90
36498;DHT22;22513;51.222;6.480;2022-11-11T03:04:56;5.40;99.90
36498;DHT22;22513;51.222;6.480;2022-11-11T03:07:23;5.40;99.90
36498;DHT22;22513;51.222;6.480;2022-11-11T03:09:49;5.40;99.90
36498;DHT22;22513;51.222;6.480;2022-11-11T03:12:15;5.40;99.90
36498;DHT22;22513;51.222;6.480;2022-11-11T03:14:41;5.40;99.90
36498;DHT22;22513;51.222;6.480;2022-11-11T03:17:07;5.40;99.90
36498;DHT22;22513;51.222;6.480;2022-11-11T03:19:51;5.30;99.90
36498;DHT22;22513;51.222;6.480;2022-11-11T03:22:17;5.30;99.90
36498;DHT22;22513;51.222;6.480;2022-11-11T03:24:43;5.30;99.90
36498;DHT22;22513;51.222;6.480;2022-11-11T03:27:27;5.30;99.90
36498;DHT22;22513;51.222;6.480;2022-11-11T03:29:52;5.30;99.90
36498;DHT22;22513;51.222;6.480;2022-11-11T03:32:18;5.30;99.90
36498;DHT22;22513;51.222;6.480;2022-11-11T03:34:43;5.30;99.90
36498;DHT22;22513;51.222;6.480;2022-11-11T03:37:10;5.30;99.90
36498;DHT22;22513;51.222;6.480;2022-11-11T03:39:54;5.40;99.90
36498;DHT22;22513;51.222;6.480;2022-11-11T03:42:20;5.40;99.90
36498;DHT22;22513;51.222;6.480;2022-11-11T03:44:46;5.40;99.90
36498;DHT22;22513;51.222;6.480;2022-11-11T03:47:11;5.40;99.90
36498;DHT22;22513;51.222;6.480;2022-11-11T03:49:37;5.40;99.90
36498;DHT22;22513;51.222;6.480;2022-11-11T03:52:03;5.40;99.90
36498;DHT22;22513;51.222;6.480;2022-11-11T03:54:28;5.40;99.90
36498;DHT22;22513;51.222;6.480;2022-11-11T03:56:54;5.40;99.90
36498;DHT22;22513;51.222;6.480;2022-11-11T03:59:43;5.40;99.90
36498;DHT22;22513;51.222;6.480;2022-11-11T04:02:12;5.40;99.90
36498;DHT22;22513;51.222;6.480;2022-11-11T04:04:57;5.40;99.90
36498;DHT22;22513;51.222;6.480;2022-11-11T04:07:41;5.30;99.90
36498;DHT22;22513;51.222;6.480;2022-11-11T04:10:27;5.30;99.90
36498;DHT22;22513;51.222;6.480;2022-11-11T04:12:53;5.40;99.90
36498;DHT22;22513;51.222;6.480;2022-11-11T04:15:38;5.40;99.90
36498;DHT22;22513;51.222;6.480;2022-11-11T04:18:19;5.30;99.90
36498;DHT22;22513;51.222;6.480;2022-11-11T04:21:05;5.20;99.90
36498;DHT22;22513;51.222;6.480;2022-11-11T04:23:49;5.20;99.90
36498;DHT22;22513;51.222;6.480;2022-11-11T04:26:14;5.10;99.90
36498;DHT22;22513;51.222;6.480;2022-11-11T04:28:40;5.10;99.90
36498;DHT22;22513;51.222;6.480;2022-11-11T04:31:24;5.10;99.90
36498;DHT22;22513;51.222;6.480;2022-11-11T04:33:49;5.10;99.90
36498;DHT22;22513;51.222;6.480;2022-11-11T04:36:15;5.10;99.90
36498;DHT22;22513;51.222;6.480;2022-11-11T04:38:40;5.10;99.90
36498;DHT22;22513;51.222;6.480;2022-11-11T04:41:24;5.00;99.90
36498;DHT22;22513;51.222;6.480;2022-11-11T04:43:50;5.00;99.90
36498;DHT22;22513;51.222;6.480;2022-11-11T04:46:34;5.00;99.90
36498;DHT22;22513;51.222;6.480;2022-11-11T04:48:59;5.00;99.90
36498;DHT22;22513;51.222;6.480;2022-11-11T04:51:25;5.00;99.90
36498;DHT22;22513;51.222;6.480;2022-11-11T04:54:10;4.90;99.90
36498;DHT22;22513;51.222;6.480;2022-11-11T04:56:36;4.90;99.90
36498;DHT22;22513;51.222;6.480;2022-11-11T04:59:17;4.90;99.90
36498;DHT22;22513;51.222;6.480;2022-11-11T05:01:44;4.90;99.90
36498;DHT22;22513;51.222;6.480;2022-11-11T05:04:29;4.90;99.90
36498;DHT22;22513;51.222;6.480;2022-11-11T05:06:54;4.90;99.90
36498;DHT22;22513;51.222;6.480;2022-11-11T05:09:38;4.90;99.90
36498;DHT22;22513;51.222;6.480;2022-11-11T05:12:04;4.90;99.90
36498;DHT22;22513;51.222;6.480;2022-11-11T05:14:30;4.90;99.90
36498;DHT22;22513;51.222;6.480;2022-11-11T05:17:14;4.80;99.90
36498;DHT22;22513;51.222;6.480;2022-11-11T05:19:58;4.80;99.90
36498;DHT22;22513;51.222;6.480;2022-11-11T05:22:42;4.80;99.90
36498;DHT22;22513;51.222;6.480;2022-11-11T05:25:10;4.70;99.90
36498;DHT22;22513;51.222;6.480;2022-11-11T05:27:51;4.70;99.90
36498;DHT22;22513;51.222;6.480;2022-11-11T05:30:19;4.70;99.90
36498;DHT22;22513;51.222;6.480;2022-11-11T05:32:45;4.70;99.90
36498;DHT22;22513;51.222;6.480;2022-11-11T05:35:11;4.70;99.90
36498;DHT22;22513;51.222;6.480;2022-11-11T05:37:37;4.70;99.90
36498;DHT22;22513;51.222;6.480;2022-11-11T05:40:04;4.70;99.90
36498;DHT22;22513;51.222;6.480;2022-11-11T05:42:29;4.70;99.90
36498;DHT22;22513;51.222;6.480;2022-11-11T05:44:55;4.70;99.90
36498;DHT22;22513;51.222;6.480;2022-11-11T05:47:20;4.70;99.90
36498;DHT22;22513;51.222;6.480;2022-11-11T05:49:46;4.70;99.90
36498;DHT22;22513;51.222;6.480;2022-11-11T05:52:13;4.70;99.90
36498;DHT22;22513;51.222;6.480;2022-11-11T05:54:40;4.70;99.90
36498;DHT22;22513;51.222;6.480;2022-11-11T05:57:06;4.70;99.90
36498;DHT22;22513;51.222;6.480;2022-11-11T05:59:31;4.70;99.90
36498;DHT22;22513;51.222;6.480;2022-11-11T06:01:57;4.70;99.90
36498;DHT22;22513;51.222;6.480;2022-11-11T06:04:23;4.70;99.90
36498;DHT22;22513;51.222;6.480;2022-11-11T06:06:49;4.70;99.90
36498;DHT22;22513;51.222;6.480;2022-11-11T06:09:14;4.70;99.90
36498;DHT22;22513;51.222;6.480;2022-11-11T06:11:40;4.70;99.90
36498;DHT22;22513;51.222;6.480;2022-11-11T06:14:06;4.70;99.90
36498;DHT22;22513;51.222;6.480;2022-11-11T06:16:32;4.70;99.90
36498;DHT22;22513;51.222;6.480;2022-11-11T06:18:57;4.70;99.90
36498;DHT22;22513;51.222;6.480;2022-11-11T06:21:25;4.70;99.90
36498;DHT22;22513;51.222;6.480;2022-11-11T06:23:51;4.70;99.90
36498;DHT22;22513;51.222;6.480;2022-11-11T06:26:17;4.70;99.90
36498;DHT22;22513;51.222;6.480;2022-11-11T06:28:54;4.70;99.90
36498;DHT22;22513;51.222;6.480;2022-11-11T06:31:25;4.70;99.90
36498;DHT22;22513;51.222;6.480;2022-11-11T06:33:51;4.70;99.90
36498;DHT22;22513;51.222;6.480;2022-11-11T06:36:19;4.80;99.90
36498;DHT22;22513;51.222;6.480;2022-11-11T06:38:45;4.80;99.90
36498;DHT22;22513;51.222;6.480;2022-11-11T06:41:12;4.90;99.90
36498;DHT22;22513;51.222;6.480;2022-11-11T06:43:38;4.90;99.90
36498;DHT22;22513;51.222;6.480;2022-11-11T06:48:34;4.90;99.90
36498;DHT22;22513;51.222;6.480;2022-11-11T06:51:04;5.00;99.90
36498;DHT22;22513;51.222;6.480;2022-11-11T06:53:30;5.00;99.90
36498;DHT22;22513;51.222;6.480;2022-11-11T06:55:56;5.00;99.90
36498;DHT22;22513;51.222;6.480;2022-11-11T06:58:22;5.00;99.90
36498;DHT22;22513;51.222;6.480;2022-11-11T07:00:49;5.00;99.90
36498;DHT22;22513;51.222;6.480;2022-11-11T07:03:17;5.00;99.90
36498;DHT22;22513;51.222;6.480;2022-11-11T07:05:43;5.10;99.90
36498;DHT22;22513;51.222;6.480;2022-11-11T07:08:12;5.20;99.90
36498;DHT22;22513;51.222;6.480;2022-11-11T07:10:41;5.20;99.90
36498;DHT22;22513;51.222;6.480;2022-11-11T07:13:08;5.20;99.90
36498;DHT22;22513;51.222;6.480;2022-11-11T07:15:33;5.30;99.90
36498;DHT22;22513;51.222;6.480;2022-11-11T07:18:00;5.40;99.90
36498;DHT22;22513;51.222;6.480;2022-11-11T07:20:26;5.40;99.90
36498;DHT22;22513;51.222;6.480;2022-11-11T07:22:51;5.50;99.90
36498;DHT22;22513;51.222;6.480;2022-11-11T07:25:17;5.60;99.90
36498;DHT22;22513;51.222;6.480;2022-11-11T07:27:43;5.60;99.90
36498;DHT22;22513;51.222;6.480;2022-11-11T07:30:10;5.70;99.90
36498;DHT22;22513;51.222;6.480;2022-11-11T07:32:38;5.80;99.90
36498;DHT22;22513;51.222;6.480;2022-11-11T07:35:11;5.90;99.90
36498;DHT22;22513;51.222;6.480;2022-11-11T07:37:39;5.90;99.90
36498;DHT22;22513;51.222;6.480;2022-11-11T07:40:05;6.00;99.90
36498;DHT22;22513;51.222;6.480;2022-11-11T07:42:31;6.00;99.90
36498;DHT22;22513;51.222;6.480;2022-11-11T07:44:57;6.10;99.90
36498;DHT22;22513;51.222;6.480;2022-11-11T07:47:22;6.20;99.90
36498;DHT22;22513;51.222;6.480;2022-11-11T07:49:48;6.20;99.90
36498;DHT22;22513;51.222;6.480;2022-11-11T07:52:13;6.30;99.90
36498;DHT22;22513;51.222;6.480;2022-11-11T07:54:39;6.40;99.90
36498;DHT22;22513;51.222;6.480;2022-11-11T07:57:04;6.50;99.90
36498;DHT22;22513;51.222;6.480;2022-11-11T07:59:30;6.60;99.90
36498;DHT22;22513;51.222;6.480;2022-11-11T08:01:56;6.60;99.90
36498;DHT22;22513;51.222;6.480;2022-11-11T08:04:21;6.70;99.90
36498;DHT22;22513;51.222;6.480;2022-11-11T08:06:47;7.00;99.90
36498;DHT22;22513;51.222;6.480;2022-11-11T08:09:12;7.10;99.90
36498;DHT22;22513;51.222;6.480;2022-11-11T08:11:38;7.30;99.90
36498;DHT22;22513;51.222;6.480;2022-11-11T08:14:22;7.10;99.90
36498;DHT22;22513;51.222;6.480;2022-11-11T08:16:47;7.20;99.90
36498;DHT22;22513;51.222;6.480;2022-11-11T08:19:13;7.80;99.90
36498;DHT22;22513;51.222;6.480;2022-11-11T08:21:39;7.60;99.90
36498;DHT22;22513;51.222;6.480;2022-11-11T08:24:04;7.50;99.90
36498;DHT22;22513;51.222;6.480;2022-11-11T08:26:30;7.60;99.90
36498;DHT22;22513;51.222;6.480;2022-11-11T08:28:56;7.70;99.90
36498;DHT22;22513;51.222;6.480;2022-11-11T08:31:22;7.90;99.90
36498;DHT22;22513;51.222;6.480;2022-11-11T08:33:48;8.00;99.90
36498;DHT22;22513;51.222;6.480;2022-11-11T08:36:14;8.10;99.90
36498;DHT22;22513;51.222;6.480;2022-11-11T08:38:39;8.20;99.90
36498;DHT22;22513;51.222;6.480;2022-11-11T08:41:06;8.30;99.90
36498;DHT22;22513;51.222;6.480;2022-11-11T08:43:32;8.40;99.90
36498;DHT22;22513;51.222;6.480;2022-11-11T08:46:00;8.60;99.90
36498;DHT22;22513;51.222;6.480;2022-11-11T08:48:26;8.70;99.90
36498;DHT22;22513;51.222;6.480;2022-11-11T08:50:53;8.70;99.90
36498;DHT22;22513;51.222;6.480;2022-11-11T08:53:19;8.90;99.90
36498;DHT22;22513;51.222;6.480;2022-11-11T08:55:45;9.00;99.90
36498;DHT22;22513;51.222;6.480;2022-11-11T08:58:11;9.10;99.90
36498;DHT22;22513;51.222;6.480;2022-11-11T09:00:37;9.20;99.90
36498;DHT22;22513;51.222;6.480;2022-11-11T09:03:08;9.30;99.90
36498;DHT22;22513;51.222;6.480;2022-11-11T09:05:37;9.40;99.90
36498;DHT22;22513;51.222;6.480;2022-11-11T09:08:05;9.50;99.90
36498;DHT22;22513;51.222;6.480;2022-11-11T09:10:35;9.60;99.90
36498;DHT22;22513;51.222;6.480;2022-11-11T09:13:00;9.60;99.90
36498;DHT22;22513;51.222;6.480;2022-11-11T09:15:27;9.70;99.90
36498;DHT22;22513;51.222;6.480;2022-11-11T09:17:53;9.90;99.90
36498;DHT22;22513;51.222;6.480;2022-11-11T09:20:19;9.90;99.90
36498;DHT22;22513;51.222;6.480;2022-11-11T09:22:45;10.00;99.90
36498;DHT22;22513;51.222;6.480;2022-11-11T09:25:12;10.00;99.90
36498;DHT22;22513;51.222;6.480;2022-11-11T09:27:38;10.10;99.90
36498;DHT22;22513;51.222;6.480;2022-11-11T09:30:05;10.20;99.90
36498;DHT22;22513;51.222;6.480;2022-11-11T09:32:31;10.30;99.90
36498;DHT22;22513;51.222;6.480;2022-11-11T09:34:57;10.40;99.90
36498;DHT22;22513;51.222;6.480;2022-11-11T09:37:23;10.50;99.90
36498;DHT22;22513;51.222;6.480;2022-11-11T09:39:49;10.60;99.90
36498;DHT22;22513;51.222;6.480;2022-11-11T09:45:05;10.80;99.90
36498;DHT22;22513;51.222;6.480;2022-11-11T09:50:11;11.00;99.90
36498;DHT22;22513;51.222;6.480;2022-11-11T09:55:47;11.20;99.90
36498;DHT22;22513;51.222;6.480;2022-11-11T10:00:49;11.40;99.90
36498;DHT22;22513;51.222;6.480;2022-11-11T10:03:21;11.60;99.90
36498;DHT22;22513;51.222;6.480;2022-11-11T10:06:08;11.70;99.90
36498;DHT22;22513;51.222;6.480;2022-11-11T10:08:57;11.80;99.90
36498;DHT22;22513;51.222;6.480;2022-11-11T10:14:13;12.10;99.90
36498;DHT22;22513;51.222;6.480;2022-11-11T10:16:53;12.10;99.90
36498;DHT22;22513;51.222;6.480;2022-11-11T10:19:37;12.20;99.90
36498;DHT22;22513;51.222;6.480;2022-11-11T10:24:49;12.40;99.90
36498;DHT22;22513;51.222;6.480;2022-11-11T10:27:18;12.50;99.90
36498;DHT22;22513;51.222;6.480;2022-11-11T10:29:44;12.60;99.90
36498;DHT22;22513;51.222;6.480;2022-11-11T10:32:23;12.70;99.90
36498;DHT22;22513;51.222;6.480;2022-11-11T10:34:50;12.80;99.90
36498;DHT22;22513;51.222;6.480;2022-11-11T10:37:35;12.90;99.90
36498;DHT22;22513;51.222;6.480;2022-11-11T10:40:08;13.00;99.90
36498;DHT22;22513;51.222;6.480;2022-11-11T10:42:36;13.00;99.90
36498;DHT22;22513;51.222;6.480;2022-11-11T10:45:10;13.10;99.90
36498;DHT22;22513;51.222;6.480;2022-11-11T10:50:17;13.20;99.90
36498;DHT22;22513;51.222;6.480;2022-11-11T10:52:54;13.20;99.90
36498;DHT22;22513;51.222;6.480;2022-11-11T10:58:13;13.20;99.90
36498;DHT22;22513;51.222;6.480;2022-11-11T11:00:42;13.20;99.90
36498;DHT22;22513;51.222;6.480;2022-11-11T11:03:30;13.20;99.90
36498;DHT22;22513;51.222;6.480;2022-11-11T11:08:56;13.20;99.90
36498;DHT22;22513;51.222;6.480;2022-11-11T11:11:35;13.20;99.90
36498;DHT22;22513;51.222;6.480;2022-11-11T11:14:07;13.30;99.90
36498;DHT22;22513;51.222;6.480;2022-11-11T11:16:38;13.30;99.90
36498;DHT22;22513;51.222;6.480;2022-11-11T11:19:18;13.20;99.90
36498;DHT22;22513;51.222;6.480;2022-11-11T11:22:02;13.10;99.90
36498;DHT22;22513;51.222;6.480;2022-11-11T11:24:31;13.10;99.90
36498;DHT22;22513;51.222;6.480;2022-11-11T11:27:05;13.10;99.90
36498;DHT22;22513;51.222;6.480;2022-11-11T11:29:37;13.10;99.90
36498;DHT22;22513;51.222;6.480;2022-11-11T11:34:52;13.00;99.90
36498;DHT22;22513;51.222;6.480;2022-11-11T11:37:20;12.90;99.90
36498;DHT22;22513;51.222;6.480;2022-11-11T11:39:47;12.90;99.90
36498;DHT22;22513;51.222;6.480;2022-11-11T11:42:33;12.80;99.90
36498;DHT22;22513;51.222;6.480;2022-11-11T11:55:43;12.50;99.90
36498;DHT22;22513;51.222;6.480;2022-11-11T11:58:19;12.50;99.90
36498;DHT22;22513;51.222;6.480;2022-11-11T12:06:19;12.70;99.90
36498;DHT22;22513;51.222;6.480;2022-11-11T12:09:20;12.70;99.90
36498;DHT22;22513;51.222;6.480;2022-11-11T12:14:47;12.70;99.90
36498;DHT22;22513;51.222;6.480;2022-11-11T12:17:25;12.70;99.90
36498;DHT22;22513;51.222;6.480;2022-11-11T12:19:59;12.70;99.90
36498;DHT22;22513;51.222;6.480;2022-11-11T12:22:35;12.70;99.90
36498;DHT22;22513;51.222;6.480;2022-11-11T12:25:39;12.70;99.90
36498;DHT22;22513;51.222;6.480;2022-11-11T12:28:30;12.80;99.90
36498;DHT22;22513;51.222;6.480;2022-11-11T12:37:54;12.90;99.90
36498;DHT22;22513;51.222;6.480;2022-11-11T12:39:54;13.00;99.90
36498;DHT22;22513;51.222;6.480;2022-11-11T12:45:18;13.00;99.90
36498;DHT22;22513;51.222;6.480;2022-11-11T12:50:42;13.20;99.90
36498;DHT22;22513;51.222;6.480;2022-11-11T12:58:52;13.40;99.90
36498;DHT22;22513;51.222;6.480;2022-11-11T13:07:46;13.60;99.90
36498;DHT22;22513;51.222;6.480;2022-11-11T13:13:01;13.60;99.90
36498;DHT22;22513;51.222;6.480;2022-11-11T13:15:30;13.70;99.90
36498;DHT22;22513;51.222;6.480;2022-11-11T13:17:58;13.80;99.90
36498;DHT22;22513;51.222;6.480;2022-11-11T13:23:09;13.90;99.90
36498;DHT22;22513;51.222;6.480;2022-11-11T13:25:39;13.90;99.90
36498;DHT22;22513;51.222;6.480;2022-11-11T13:28:17;13.90;99.90
36498;DHT22;22513;51.222;6.480;2022-11-11T13:33:44;14.00;99.90
36498;DHT22;22513;51.222;6.480;2022-11-11T13:36:16;13.90;99.90
36498;DHT22;22513;51.222;6.480;2022-11-11T13:38:52;13.90;99.90
36498;DHT22;22513;51.222;6.480;2022-11-11T13:41:39;13.90;99.90
36498;DHT22;22513;51.222;6.480;2022-11-11T13:44:08;13.90;99.90
36498;DHT22;22513;51.222;6.480;2022-11-11T13:46:45;13.90;99.90
36498;DHT22;22513;51.222;6.480;2022-11-11T13:49:24;13.90;99.90
36498;DHT22;22513;51.222;6.480;2022-11-11T13:51:57;13.90;99.90
36498;DHT22;22513;51.222;6.480;2022-11-11T13:54:35;13.90;99.90
36498;DHT22;22513;51.222;6.480;2022-11-11T13:57:22;13.80;99.90
36498;DHT22;22513;51.222;6.480;2022-11-11T14:00:03;13.80;99.90
36498;DHT22;22513;51.222;6.480;2022-11-11T14:02:31;13.80;99.90
36498;DHT22;22513;51.222;6.480;2022-11-11T14:12:49;13.70;99.90
36498;DHT22;22513;51.222;6.480;2022-11-11T14:15:44;13.60;99.90
36498;DHT22;22513;51.222;6.480;2022-11-11T14:23:32;13.60;99.90
36498;DHT22;22513;51.222;6.480;2022-11-11T14:28:32;13.50;99.90
36498;DHT22;22513;51.222;6.480;2022-11-11T14:39:52;13.20;99.90
36498;DHT22;22513;51.222;6.480;2022-11-11T14:42:40;13.20;99.90
36498;DHT22;22513;51.222;6.480;2022-11-11T14:47:47;13.10;99.90
36498;DHT22;22513;51.222;6.480;2022-11-11T14:53:18;12.80;99.90
36498;DHT22;22513;51.222;6.480;2022-11-11T14:55:51;12.90;99.90
36498;DHT22;22513;51.222;6.480;2022-11-11T14:58:20;12.80;99.90
36498;DHT22;22513;51.222;6.480;2022-11-11T15:06:31;12.70;99.90
36498;DHT22;22513;51.222;6.480;2022-11-11T15:12:32;12.60;99.90
36498;DHT22;22513;51.222;6.480;2022-11-11T15:26:17;12.30;99.90
36498;DHT22;22513;51.222;6.480;2022-11-11T15:37:09;11.80;99.90
36498;DHT22;22513;51.222;6.480;2022-11-11T15:39:43;11.70;99.90
36498;DHT22;22513;51.222;6.480;2022-11-11T15:42:31;11.60;99.90
36498;DHT22;22513;51.222;6.480;2022-11-11T15:45:00;11.50;99.90
36498;DHT22;22513;51.222;6.480;2022-11-11T15:47:27;11.40;99.90
36498;DHT22;22513;51.222;6.480;2022-11-11T15:49:53;11.30;99.90
36498;DHT22;22513;51.222;6.480;2022-11-11T15:54:48;11.10;99.90
36498;DHT22;22513;51.222;6.480;2022-11-11T15:59:54;10.90;99.90
36498;DHT22;22513;51.222;6.480;2022-11-11T16:02:22;10.80;99.90
36498;DHT22;22513;51.222;6.480;2022-11-11T16:04:53;10.70;99.90
36498;DHT22;22513;51.222;6.480;2022-11-11T16:07:25;10.60;99.90
36498;DHT22;22513;51.222;6.480;2022-11-11T16:09:54;10.60;99.90
36498;DHT22;22513;51.222;6.480;2022-11-11T16:12:29;10.60;99.90
36498;DHT22;22513;51.222;6.480;2022-11-11T16:14:57;10.50;99.90
36498;DHT22;22513;51.222;6.480;2022-11-11T16:17:32;10.50;99.90
36498;DHT22;22513;51.222;6.480;2022-11-11T16:20:02;10.40;99.90
36498;DHT22;22513;51.222;6.480;2022-11-11T16:22:34;10.30;99.90
36498;DHT22;22513;51.222;6.480;2022-11-11T16:25:01;10.20;99.90
36498;DHT22;22513;51.222;6.480;2022-11-11T16:27:31;10.10;99.90
36498;DHT22;22513;51.222;6.480;2022-11-11T16:30:35;10.10;99.90
36498;DHT22;22513;51.222;6.480;2022-11-11T16:33:00;10.00;99.90
36498;DHT22;22513;51.222;6.480;2022-11-11T16:37:54;9.80;99.90
36498;DHT22;22513;51.222;6.480;2022-11-11T16:42:51;9.70;99.90
36498;DHT22;22513;51.222;6.480;2022-11-11T16:45:20;9.70;99.90
36498;DHT22;22513;51.222;6.480;2022-11-11T16:47:50;9.60;99.90
36498;DHT22;22513;51.222;6.480;2022-11-11T16:50:23;9.60;99.90
36498;DHT22;22513;51.222;6.480;2022-11-11T16:52:55;9.60;99.90
36498;DHT22;22513;51.222;6.480;2022-11-11T16:58:01;9.40;99.90
36498;DHT22;22513;51.222;6.480;2022-11-11T17:00:28;9.30;99.90
36498;DHT22;22513;51.222;6.480;2022-11-11T17:03:20;9.30;99.90
36498;DHT22;22513;51.222;6.480;2022-11-11T17:08:34;9.30;99.90
36498;DHT22;22513;51.222;6.480;2022-11-11T17:11:01;9.20;99.90
36498;DHT22;22513;51.222;6.480;2022-11-11T17:13:28;9.20;99.90
36498;DHT22;22513;51.222;6.480;2022-11-11T17:15:56;9.10;99.90
36498;DHT22;22513;51.222;6.480;2022-11-11T17:18:23;9.20;99.90
36498;DHT22;22513;51.222;6.480;2022-11-11T17:20:49;9.10;99.90
36498;DHT22;22513;51.222;6.480;2022-11-11T17:23:16;9.00;99.90
36498;DHT22;22513;51.222;6.480;2022-11-11T17:25:42;9.00;99.90
36498;DHT22;22513;51.222;6.480;2022-11-11T17:28:08;8.90;99.90
36498;DHT22;22513;51.222;6.480;2022-11-11T17:30:35;8.90;99.90
36498;DHT22;22513;51.222;6.480;2022-11-11T17:33:02;8.80;99.90
36498;DHT22;22513;51.222;6.480;2022-11-11T17:35:27;8.70;99.90
36498;DHT22;22513;51.222;6.480;2022-11-11T17:37:53;8.70;99.90
36498;DHT22;22513;51.222;6.480;2022-11-11T17:40:19;8.60;99.90
36498;DHT22;22513;51.222;6.480;2022-11-11T17:42:45;8.50;99.90
36498;DHT22;22513;51.222;6.480;2022-11-11T17:45:10;8.40;99.90
36498;DHT22;22513;51.222;6.480;2022-11-11T17:47:36;8.30;99.90
36498;DHT22;22513;51.222;6.480;2022-11-11T17:50:02;8.20;99.90
36498;DHT22;22513;51.222;6.480;2022-11-11T17:52:27;8.20;99.90
36498;DHT22;22513;51.222;6.480;2022-11-11T17:54:53;8.20;99.90
36498;DHT22;22513;51.222;6.480;2022-11-11T17:57:18;8.20;99.90
36498;DHT22;22513;51.222;6.480;2022-11-11T17:59:44;8.20;99.90
36498;DHT22;22513;51.222;6.480;2022-11-11T18:02:11;8.10;99.90
36498;DHT22;22513;51.222;6.480;2022-11-11T18:04:37;8.10;99.90
36498;DHT22;22513;51.222;6.480;2022-11-11T18:07:03;8.10;99.90
36498;DHT22;22513;51.222;6.480;2022-11-11T18:09:28;8.10;99.90
36498;DHT22;22513;51.222;6.480;2022-11-11T18:11:54;8.10;99.90
36498;DHT22;22513;51.222;6.480;2022-11-11T18:14:20;8.10;99.90
36498;DHT22;22513;51.222;6.480;2022-11-11T18:16:45;8.10;99.90
36498;DHT22;22513;51.222;6.480;2022-11-11T18:19:11;8.00;99.90
36498;DHT22;22513;51.222;6.480;2022-11-11T18:21:37;8.10;99.90
36498;DHT22;22513;51.222;6.480;2022-11-11T18:24:07;8.10;99.90
36498;DHT22;22513;51.222;6.480;2022-11-11T18:26:34;8.20;99.90
36498;DHT22;22513;51.222;6.480;2022-11-11T18:28:59;8.20;99.90
36498;DHT22;22513;51.222;6.480;2022-11-11T18:31:25;8.10;99.90
36498;DHT22;22513;51.222;6.480;2022-11-11T18:33:51;8.10;99.90
36498;DHT22;22513;51.222;6.480;2022-11-11T18:36:18;8.10;99.90
36498;DHT22;22513;51.222;6.480;2022-11-11T18:38:45;8.20;99.90